sensor_id;sensor_type;location;lat;lon;timestamp;pressure;altitude;pressure_sealevel;temperature;humidity
61357;BME280;47227;46.752;23.576;2023-05-20T00:02:20;96897.55;;;12.39;69.07
61357;BME280;47227;46.752;23.576;2023-05-20T00:04:48;96898.83;;;12.40;69.57
61357;BME280;47227;46.752;23.576;2023-05-20T00:07:16;96903.46;;;12.40;69.87
61357;BME280;47227;46.752;23.576;2023-05-20T00:09:44;96901.66;;;12.39;69.87
61357;BME280;47227;46.752;23.576;2023-05-20T00:12:12;96901.04;;;12.40;69.86
61357;BME280;47227;46.752;23.576;2023-05-20T00:14:40;96901.89;;;12.41;70.07
61357;BME280;47227;46.752;23.576;2023-05-20T00:17:09;96901.75;;;12.42;70.21
61357;BME280;47227;46.752;23.576;2023-05-20T00:19:37;96899.06;;;12.42;70.16
61357;BME280;47227;46.752;23.576;2023-05-20T00:22:06;96901.51;;;12.40;70.30
61357;BME280;47227;46.752;23.576;2023-05-20T00:24:35;96894.10;;;12.37;70.35
61357;BME280;47227;46.752;23.576;2023-05-20T00:27:03;96889.23;;;12.34;70.33
61357;BME280;47227;46.752;23.576;2023-05-20T00:29:32;96889.84;;;12.29;70.51
61357;BME280;47227;46.752;23.576;2023-05-20T00:32:03;96885.80;;;12.22;70.34
61357;BME280;47227;46.752;23.576;2023-05-20T00:34:31;96888.02;;;12.16;70.68
61357;BME280;47227;46.752;23.576;2023-05-20T00:36:59;96887.83;;;12.09;71.45
61357;BME280;47227;46.752;23.576;2023-05-20T00:39:27;96886.09;;;12.01;73.23
61357;BME280;47227;46.752;23.576;2023-05-20T00:41:57;96883.06;;;11.93;73.73
61357;BME280;47227;46.752;23.576;2023-05-20T00:44:27;96882.67;;;11.85;73.04
61357;BME280;47227;46.752;23.576;2023-05-20T00:46:55;96881.70;;;11.77;75.32
61357;BME280;47227;46.752;23.576;2023-05-20T00:49:23;96873.25;;;11.68;74.36
61357;BME280;47227;46.752;23.576;2023-05-20T00:51:51;96871.66;;;11.60;73.36
61357;BME280;47227;46.752;23.576;2023-05-20T00:54:20;96872.80;;;11.53;73.20
61357;BME280;47227;46.752;23.576;2023-05-20T00:56:49;96872.98;;;11.44;77.36
61357;BME280;47227;46.752;23.576;2023-05-20T00:59:17;96875.71;;;11.35;78.54
61357;BME280;47227;46.752;23.576;2023-05-20T01:01:45;96879.64;;;11.31;78.31
61357;BME280;47227;46.752;23.576;2023-05-20T01:04:14;96884.45;;;11.30;76.97
61357;BME280;47227;46.752;23.576;2023-05-20T01:06:43;96883.38;;;11.28;76.10
61357;BME280;47227;46.752;23.576;2023-05-20T01:09:13;96883.00;;;11.28;75.83
61357;BME280;47227;46.752;23.576;2023-05-20T01:11:47;96885.76;;;11.29;76.00
61357;BME280;47227;46.752;23.576;2023-05-20T01:14:19;96879.89;;;11.31;75.83
61357;BME280;47227;46.752;23.576;2023-05-20T02:51:31;96861.59;;;11.05;76.14
61357;BME280;47227;46.752;23.576;2023-05-20T03:31:53;96897.59;;;10.98;78.53
61357;BME280;47227;46.752;23.576;2023-05-20T04:29:43;96913.73;;;10.91;80.64
61357;BME280;47227;46.752;23.576;2023-05-20T04:44:53;96931.60;;;11.06;78.90
61357;BME280;47227;46.752;23.576;2023-05-20T04:49:00;96930.89;;;11.16;78.61
61357;BME280;47227;46.752;23.576;2023-05-20T05:58:32;96930.49;;;14.32;71.67
61357;BME280;47227;46.752;23.576;2023-05-20T06:23:54;96931.89;;;14.85;71.63
61357;BME280;47227;46.752;23.576;2023-05-20T07:18:26;96900.94;;;17.27;58.80
61357;BME280;47227;46.752;23.576;2023-05-20T07:45:34;96898.39;;;18.60;56.34
61357;BME280;47227;46.752;23.576;2023-05-20T07:48:04;96895.66;;;18.72;56.20
61357;BME280;47227;46.752;23.576;2023-05-20T07:57:42;96894.77;;;18.76;48.27
61357;BME280;47227;46.752;23.576;2023-05-20T08:04:20;96892.86;;;18.90;49.91
61357;BME280;47227;46.752;23.576;2023-05-20T08:10:03;96894.89;;;19.25;50.20
61357;BME280;47227;46.752;23.576;2023-05-20T09:32:43;96864.64;;;22.84;42.75
61357;BME280;47227;46.752;23.576;2023-05-20T09:39:12;96853.96;;;23.63;42.73
61357;BME280;47227;46.752;23.576;2023-05-20T09:48:11;96846.86;;;24.73;38.78
61357;BME280;47227;46.752;23.576;2023-05-20T09:57:53;96840.86;;;25.15;36.83
61357;BME280;47227;46.752;23.576;2023-05-20T10:01:05;96836.20;;;24.94;37.07
61357;BME280;47227;46.752;23.576;2023-05-20T10:10:50;96832.33;;;25.45;37.48
61357;BME280;47227;46.752;23.576;2023-05-20T10:14:32;96828.90;;;25.80;37.52
61357;BME280;47227;46.752;23.576;2023-05-20T10:21:17;96823.05;;;26.35;36.32
61357;BME280;47227;46.752;23.576;2023-05-20T10:27:25;96816.95;;;26.44;34.84
61357;BME280;47227;46.752;23.576;2023-05-20T10:31:17;96808.88;;;26.17;34.74
61357;BME280;47227;46.752;23.576;2023-05-20T10:37:43;96804.44;;;26.80;36.11
61357;BME280;47227;46.752;23.576;2023-05-20T10:41:08;96805.66;;;27.22;35.89
61357;BME280;47227;46.752;23.576;2023-05-20T10:44:01;96804.94;;;27.55;34.99
61357;BME280;47227;46.752;23.576;2023-05-20T10:47:12;96798.47;;;27.69;33.87
61357;BME280;47227;46.752;23.576;2023-05-20T10:50:01;96798.13;;;27.91;34.29
61357;BME280;47227;46.752;23.576;2023-05-20T10:52:52;96796.23;;;28.18;33.29
61357;BME280;47227;46.752;23.576;2023-05-20T10:55:59;96790.27;;;28.33;32.65
61357;BME280;47227;46.752;23.576;2023-05-20T10:58:37;96782.33;;;28.40;30.63
61357;BME280;47227;46.752;23.576;2023-05-20T11:01:31;96776.30;;;28.48;30.62
61357;BME280;47227;46.752;23.576;2023-05-20T11:04:23;96777.67;;;28.65;30.44
61357;BME280;47227;46.752;23.576;2023-05-20T11:07:23;96775.07;;;28.73;29.92
61357;BME280;47227;46.752;23.576;2023-05-20T11:10:20;96770.47;;;29.11;30.05
61357;BME280;47227;46.752;23.576;2023-05-20T11:12:56;96765.08;;;29.32;29.57
61357;BME280;47227;46.752;23.576;2023-05-20T11:15:25;96763.95;;;29.33;28.57
61357;BME280;47227;46.752;23.576;2023-05-20T11:18:02;96762.46;;;29.45;28.61
61357;BME280;47227;46.752;23.576;2023-05-20T11:20:36;96764.31;;;29.79;28.77
61357;BME280;47227;46.752;23.576;2023-05-20T11:23:12;96762.40;;;30.03;28.00
61357;BME280;47227;46.752;23.576;2023-05-20T11:25:41;96760.58;;;30.20;28.00
61357;BME280;47227;46.752;23.576;2023-05-20T11:28:31;96756.70;;;30.14;27.74
61357;BME280;47227;46.752;23.576;2023-05-20T11:31:36;96749.78;;;30.02;27.43
61357;BME280;47227;46.752;23.576;2023-05-20T11:34:25;96745.38;;;30.26;27.04
61357;BME280;47227;46.752;23.576;2023-05-20T11:37:07;96745.60;;;30.59;27.63
61357;BME280;47227;46.752;23.576;2023-05-20T11:40:04;96745.77;;;30.77;27.35
61357;BME280;47227;46.752;23.576;2023-05-20T11:42:35;96738.59;;;30.95;26.72
61357;BME280;47227;46.752;23.576;2023-05-20T11:45:38;96740.20;;;31.14;26.32
61357;BME280;47227;46.752;23.576;2023-05-20T11:48:08;96736.09;;;31.28;27.02
61357;BME280;47227;46.752;23.576;2023-05-20T11:50:41;96730.96;;;31.54;26.94
61357;BME280;47227;46.752;23.576;2023-05-20T11:53:15;96733.96;;;31.79;26.63
61357;BME280;47227;46.752;23.576;2023-05-20T11:55:55;96731.48;;;32.05;25.75
61357;BME280;47227;46.752;23.576;2023-05-20T11:58:27;96725.06;;;31.42;24.77
61357;BME280;47227;46.752;23.576;2023-05-20T12:01:10;96724.73;;;30.95;25.15
61357;BME280;47227;46.752;23.576;2023-05-20T12:03:50;96715.71;;;31.42;25.14
61357;BME280;47227;46.752;23.576;2023-05-20T12:06:19;96714.34;;;31.86;25.17
61357;BME280;47227;46.752;23.576;2023-05-20T12:08:51;96713.90;;;32.20;24.46
61357;BME280;47227;46.752;23.576;2023-05-20T12:11:26;96713.63;;;32.68;24.55
61357;BME280;47227;46.752;23.576;2023-05-20T12:14:12;96714.08;;;32.94;23.49
61357;BME280;47227;46.752;23.576;2023-05-20T12:16:45;96714.63;;;33.16;23.17
61357;BME280;47227;46.752;23.576;2023-05-20T12:19:24;96711.30;;;33.05;22.34
61357;BME280;47227;46.752;23.576;2023-05-20T12:22:21;96708.17;;;32.77;21.94
61357;BME280;47227;46.752;23.576;2023-05-20T12:24:58;96701.05;;;32.62;21.76
61357;BME280;47227;46.752;23.576;2023-05-20T12:28:00;96696.85;;;33.00;22.00
61357;BME280;47227;46.752;23.576;2023-05-20T12:30:30;96695.89;;;33.55;21.38
61357;BME280;47227;46.752;23.576;2023-05-20T12:33:19;96695.20;;;33.96;21.22
61357;BME280;47227;46.752;23.576;2023-05-20T12:35:55;96692.25;;;34.14;20.89
61357;BME280;47227;46.752;23.576;2023-05-20T12:38:23;96691.39;;;34.04;20.37
61357;BME280;47227;46.752;23.576;2023-05-20T12:41:12;96696.20;;;33.64;21.12
61357;BME280;47227;46.752;23.576;2023-05-20T12:44:01;96719.11;;;33.18;21.28
61357;BME280;47227;46.752;23.576;2023-05-20T12:46:36;96744.78;;;32.38;22.95
61357;BME280;47227;46.752;23.576;2023-05-20T12:49:08;96763.92;;;30.96;25.44
61357;BME280;47227;46.752;23.576;2023-05-20T12:51:58;96781.14;;;29.43;28.26
61357;BME280;47227;46.752;23.576;2023-05-20T12:55:10;96792.98;;;27.50;32.92
61357;BME280;47227;46.752;23.576;2023-05-20T12:58:26;96825.41;;;25.46;37.90
61357;BME280;47227;46.752;23.576;2023-05-20T13:01:40;96845.41;;;23.69;43.74
61357;BME280;47227;46.752;23.576;2023-05-20T13:04:51;96864.70;;;22.37;46.53
61357;BME280;47227;46.752;23.576;2023-05-20T13:07:48;96875.86;;;21.33;48.74
61357;BME280;47227;46.752;23.576;2023-05-20T13:11:00;96871.83;;;20.44;52.63
61357;BME280;47227;46.752;23.576;2023-05-20T13:14:41;96867.91;;;19.68;54.08
61357;BME280;47227;46.752;23.576;2023-05-20T13:18:22;96859.73;;;19.21;53.49
61357;BME280;47227;46.752;23.576;2023-05-20T13:22:04;96852.73;;;18.90;54.16
61357;BME280;47227;46.752;23.576;2023-05-20T13:28:50;96832.01;;;18.30;56.14
61357;BME280;47227;46.752;23.576;2023-05-20T13:32:34;96831.63;;;18.05;56.08
61357;BME280;47227;46.752;23.576;2023-05-20T13:39:36;96828.83;;;17.27;67.95
61357;BME280;47227;46.752;23.576;2023-05-20T13:42:48;96841.35;;;17.02;65.54
61357;BME280;47227;46.752;23.576;2023-05-20T13:46:00;96850.08;;;16.93;65.27
61357;BME280;47227;46.752;23.576;2023-05-20T14:46:15;96698.90;;;16.31;71.75
61357;BME280;47227;46.752;23.576;2023-05-20T14:59:12;96691.16;;;16.66;69.62
61357;BME280;47227;46.752;23.576;2023-05-20T15:02:51;96693.02;;;16.76;69.27
61357;BME280;47227;46.752;23.576;2023-05-20T15:19:12;96679.14;;;17.21;68.92
61357;BME280;47227;46.752;23.576;2023-05-20T15:36:37;96657.42;;;18.30;67.98
61357;BME280;47227;46.752;23.576;2023-05-20T15:52:49;96663.21;;;18.82;63.24
61357;BME280;47227;46.752;23.576;2023-05-20T16:19:39;96659.33;;;19.43;64.82
61357;BME280;47227;46.752;23.576;2023-05-20T16:22:30;96654.07;;;20.40;62.66
61357;BME280;47227;46.752;23.576;2023-05-20T16:25:06;96651.98;;;21.30;60.70
61357;BME280;47227;46.752;23.576;2023-05-20T16:28:01;96649.16;;;22.08;60.11
61357;BME280;47227;46.752;23.576;2023-05-20T16:30:59;96651.05;;;22.80;58.05
61357;BME280;47227;46.752;23.576;2023-05-20T16:33:45;96646.92;;;23.35;56.01
61357;BME280;47227;46.752;23.576;2023-05-20T16:36:48;96644.42;;;23.85;54.42
61357;BME280;47227;46.752;23.576;2023-05-20T16:40:37;96643.80;;;24.24;51.56
61357;BME280;47227;46.752;23.576;2023-05-20T16:43:28;96642.45;;;24.66;50.09
61357;BME280;47227;46.752;23.576;2023-05-20T17:00:22;96655.66;;;25.40;46.18
61357;BME280;47227;46.752;23.576;2023-05-20T17:06:37;96664.16;;;25.17;46.74
61357;BME280;47227;46.752;23.576;2023-05-20T17:34:24;96673.77;;;21.45;56.40
61357;BME280;47227;46.752;23.576;2023-05-20T17:46:38;96680.87;;;20.60;59.53
61357;BME280;47227;46.752;23.576;2023-05-20T17:51:59;96666.61;;;20.09;60.03
61357;BME280;47227;46.752;23.576;2023-05-20T17:55:21;96663.96;;;19.80;60.17
61357;BME280;47227;46.752;23.576;2023-05-20T18:01:06;96669.62;;;19.29;61.19
61357;BME280;47227;46.752;23.576;2023-05-20T18:10:40;96684.43;;;18.59;62.86
61357;BME280;47227;46.752;23.576;2023-05-20T18:13:45;96685.81;;;18.40;63.38
61357;BME280;47227;46.752;23.576;2023-05-20T18:22:44;96698.42;;;17.88;66.39
61357;BME280;47227;46.752;23.576;2023-05-20T18:26:22;96702.52;;;17.75;66.99
61357;BME280;47227;46.752;23.576;2023-05-20T18:29:16;96707.45;;;17.66;66.00
61357;BME280;47227;46.752;23.576;2023-05-20T18:43:42;96700.94;;;17.15;67.65
61357;BME280;47227;46.752;23.576;2023-05-20T18:46:47;96706.42;;;16.99;67.83
61357;BME280;47227;46.752;23.576;2023-05-20T18:53:25;96714.27;;;16.64;71.04
61357;BME280;47227;46.752;23.576;2023-05-20T19:29:52;96723.58;;;15.65;78.49
61357;BME280;47227;46.752;23.576;2023-05-20T20:15:11;96715.83;;;14.23;80.48
61357;BME280;47227;46.752;23.576;2023-05-20T20:20:55;96716.48;;;14.28;79.65
61357;BME280;47227;46.752;23.576;2023-05-20T20:26:36;96721.19;;;14.31;79.14
61357;BME280;47227;46.752;23.576;2023-05-20T20:29:06;96722.31;;;14.22;78.24
61357;BME280;47227;46.752;23.576;2023-05-20T20:38:10;96713.71;;;14.07;78.35
61357;BME280;47227;46.752;23.576;2023-05-20T20:43:59;96726.92;;;13.99;78.84
61357;BME280;47227;46.752;23.576;2023-05-20T20:53:39;96733.23;;;13.82;78.07
61357;BME280;47227;46.752;23.576;2023-05-20T22:09:02;96683.37;;;12.88;79.23
61357;BME280;47227;46.752;23.576;2023-05-20T22:22:40;96684.77;;;12.85;78.52
